Terminal Aerodrome Forecast
Issued by NWS Cleveland, OH

Home | Current Version | Previous Version | Graphics & Text | Print | Product List | Glossary On
Versions: 1 2 3 4 5 6 7 8 9 10 11 12 13
061
FTUS41 KCLE 181133
TAFMFD
TAF
KMFD 181133Z 1812/1912 21008KT P6SM SCT100
      TEMPO 1812/1814 BKN012
     FM181400 23010KT P6SM SCT025
      TEMPO 1814/1818 BKN025
     FM181800 25012G22KT P6SM BKN045
     FM182300 23006KT P6SM SCT200
     FM190700 23006KT P6SM SCT100 OVC200=

USA.gov is the U.S. government's official web portal to all federal, state and local government web resources and services.